Time;durP1;ratioP1;P1;durP2;ratioP2;P2;SDS_P1;SDS_P2;PMS_P1;PMS_P2;Temp;Humidity;BMP_temperature;BMP_pressure;BME280_temperature;BME280_humidity;BME280_pressure;Samples;Min_cycle;Max_cycle;Signal;HPM_P1;HPM_P2
2022/03/02 00:06:55;;;;;;;23.48;13.45;;;;;;;2.25;57.74;101454.63;6248860;23;20023;-93
2022/03/02 00:09:54;;;;;;;23.13;12.13;;;;;;;2.18;58.52;101447.66;6249066;23;20023;-92
2022/03/02 00:12:34;;;;;;;19.70;12.57;;;;;;;2.19;58.48;101452.00;6245239;23;20103;-93
2022/03/02 00:15:31;;;;;;;22.08;12.57;;;;;;;1.99;58.30;101421.44;6245989;23;20023;-93
2022/03/02 00:18:01;;;;;;;19.40;12.40;;;;;;;1.73;58.48;101389.97;6244674;23;20020;-93
2022/03/02 00:20:28;;;;;;;22.38;12.75;;;;;;;1.84;58.86;101410.06;6247687;23;20022;-96
2022/03/02 00:22:56;;;;;;;22.48;12.45;;;;;;;1.78;59.27;101405.66;6247243;23;20016;-92
2022/03/02 00:25:26;;;;;;;19.08;12.10;;;;;;;1.71;59.63;101399.56;6250229;23;20055;-92
2022/03/02 00:27:59;;;;;;;17.90;12.15;;;;;;;1.51;59.36;101368.97;6246449;23;20099;-92
2022/03/02 00:30:32;;;;;;;21.23;11.80;;;;;;;1.72;59.57;101405.66;6246604;23;20028;-92
2022/03/02 00:33:00;;;;;;;19.20;13.02;;;;;;;1.61;59.38;101389.91;6245709;23;20094;-92
2022/03/02 00:35:33;;;;;;;19.63;11.90;;;;;;;1.50;59.44;101372.44;6221015;23;20459;-93
2022/03/02 00:38:07;;;;;;;20.10;12.73;;;;;;;1.51;59.42;101367.25;6246770;23;20602;-92
2022/03/02 00:40:38;;;;;;;21.35;12.68;;;;;;;1.54;59.86;101369.00;6197057;23;20725;-92
2022/03/02 00:43:33;;;;;;;23.50;12.43;;;;;;;1.80;59.76;101418.72;6207518;23;20024;-93
2022/03/02 00:46:02;;;;;;;22.25;12.95;;;;;;;1.61;60.32;101387.28;6245996;23;20012;-92
2022/03/02 00:48:39;;;;;;;20.10;12.52;;;;;;;1.36;60.47;101352.38;6219125;23;20020;-91
2022/03/02 00:51:12;;;;;;;20.08;13.07;;;;;;;1.30;61.09;101354.06;6250236;23;20432;-93
2022/03/02 00:53:43;;;;;;;21.83;13.45;;;;;;;1.21;61.39;101348.78;6222033;23;20016;-93
2022/03/02 00:56:13;;;;;;;21.92;13.15;;;;;;;1.14;61.66;101352.22;6200962;23;20400;-92
2022/03/02 00:59:07;;;;;;;22.98;13.73;;;;;;;1.45;61.73;101389.81;6250772;23;20039;-92
2022/03/02 01:02:04;;;;;;;20.27;12.82;;;;;;;1.42;61.95;101395.88;6250788;23;20016;-93
2022/03/02 01:04:33;;;;;;;22.17;13.70;;;;;;;1.22;61.91;101366.19;6249887;23;20019;-92
2022/03/02 01:07:26;;;;;;;22.30;13.40;;;;;;;1.39;61.91;101383.72;6249954;23;20058;-92
2022/03/02 01:09:58;;;;;;;21.85;12.93;;;;;;;1.05;62.06;101325.22;6255535;23;20032;-92
2022/03/02 01:12:25;;;;;;;19.73;12.73;;;;;;;1.11;61.99;101320.88;6255044;23;20016;-91
2022/03/02 01:14:56;;;;;;;22.45;13.05;;;;;;;1.13;61.57;101330.47;6250347;23;20016;-92
2022/03/02 01:17:23;;;;;;;21.23;13.15;;;;;;;1.25;61.85;101351.44;6249275;23;20020;-92
2022/03/02 01:21:05;;;;;;;21.10;12.68;;;;;;;1.36;61.77;101373.25;6253715;23;20019;-92
2022/03/02 01:27:39;;;;;;;22.92;13.10;;;;;;;1.17;61.53;101332.25;6251112;23;20020;-96
2022/03/02 01:30:44;;;;;;;19.33;12.30;;;;;;;1.03;61.51;101303.47;6248783;23;20094;-93
2022/03/02 01:33:20;;;;;;;22.70;12.05;;;;;;;1.22;61.75;101347.94;6220267;23;20703;-93
2022/03/02 01:35:55;;;;;;;20.95;12.38;;;;;;;1.07;61.35;101308.72;6246762;23;20028;-93
2022/03/02 01:38:46;;;;;;;20.27;12.05;;;;;;;1.37;61.43;101355.84;6247311;23;20468;-95
2022/03/02 01:41:27;;;;;;;20.63;12.05;;;;;;;1.15;61.03;101323.53;6248182;23;20028;-95
2022/03/02 01:43:56;;;;;;;22.77;12.85;;;;;;;1.10;61.25;101307.00;6244639;23;20519;-93
2022/03/02 01:46:24;;;;;;;22.17;11.90;;;;;;;1.31;61.65;101345.38;6246881;23;20058;-93
2022/03/02 01:48:55;;;;;;;23.48;13.00;;;;;;;1.11;62.22;101321.75;6218324;23;20125;-93
2022/03/02 01:51:22;;;;;;;23.63;13.80;;;;;;;0.99;62.65;101309.53;6245011;23;20483;-93
2022/03/02 01:53:49;;;;;;;22.77;13.40;;;;;;;0.96;62.79;101314.72;6245742;23;20042;-90
2022/03/02 01:56:19;;;;;;;23.05;13.55;;;;;;;0.70;63.74;101283.25;6220322;23;20016;-90
2022/03/02 01:58:47;;;;;;;21.40;13.38;;;;;;;1.03;64.26;101329.56;6246441;23;20032;-91
2022/03/02 02:01:15;;;;;;;20.92;13.00;;;;;;;0.84;63.83;101295.50;6219623;23;20016;-91
2022/03/02 02:03:48;;;;;;;21.35;13.73;;;;;;;0.78;64.09;101293.75;6246895;23;20020;-94
2022/03/02 02:06:17;;;;;;;20.27;12.77;;;;;;;0.87;64.55;101311.19;6221522;23;20020;-92
2022/03/02 02:08:45;;;;;;;20.47;12.23;;;;;;;0.85;63.97;101285.09;6248890;23;20016;-91
2022/03/02 02:11:13;;;;;;;21.42;13.95;;;;;;;0.91;63.71;101281.66;6246365;23;20388;-92
2022/03/02 02:13:50;;;;;;;;;;;;;;;;;;;;;
2022/03/02 02:16:22;;;;;;;24.35;13.63;;;;;;;0.92;63.43;101294.72;6242440;23;20089;-92
2022/03/02 02:18:54;;;;;;;24.23;13.13;;;;;;;0.91;63.97;101302.53;6255683;23;20012;-93
2022/03/02 02:21:26;;;;;;;22.95;13.93;;;;;;;0.68;64.31;101273.66;6253495;23;20039;-94
2022/03/02 02:23:58;;;;;;;23.80;13.38;;;;;;;0.93;65.30;101322.53;6226949;23;20026;-93
2022/03/02 02:26:27;;;;;;;25.38;13.68;;;;;;;0.68;65.26;101290.19;6260674;23;20117;-93
2022/03/02 02:28:56;;;;;;;22.50;13.77;;;;;;;0.48;65.46;101251.78;6259292;23;20043;-92
2022/03/02 02:31:25;;;;;;;23.63;14.35;;;;;;;0.75;66.02;101304.16;6256847;23;20086;-91
2022/03/02 02:33:53;;;;;;;23.95;13.38;;;;;;;0.49;66.04;101262.22;6254632;23;20280;-92
2022/03/02 02:36:24;;;;;;;23.00;14.02;;;;;;;0.54;66.01;101276.16;6251139;23;20020;-92
2022/03/02 02:38:51;;;;;;;22.58;13.65;;;;;;;0.62;66.04;101284.06;6248810;23;20016;-91
2022/03/02 02:41:18;;;;;;;22.25;13.68;;;;;;;0.66;66.08;101297.13;6246970;23;20019;-92
2022/03/02 02:43:49;;;;;;;22.70;13.95;;;;;;;0.37;66.39;101240.41;6247017;23;20472;-92
2022/03/02 02:46:18;;;;;;;23.20;14.20;;;;;;;0.56;67.05;101278.78;6248862;23;20016;-92
2022/03/02 02:48:48;;;;;;;25.80;14.82;;;;;;;0.35;67.16;101235.19;6251076;23;20028;-96
2022/03/02 02:51:15;;;;;;;23.38;14.90;;;;;;;0.37;67.35;101240.41;6269152;23;20011;-96
2022/03/02 02:53:44;;;;;;;23.90;14.55;;;;;;;0.50;67.35;101274.41;6269296;22;20197;-95
2022/03/02 02:56:12;;;;;;;23.27;14.18;;;;;;;0.51;67.69;101252.69;6260987;22;20028;-91
2022/03/02 02:58:42;;;;;;;22.73;14.35;;;;;;;0.54;67.60;101251.84;6256693;23;20024;-92
2022/03/02 03:01:09;;;;;;;24.83;14.40;;;;;;;0.46;67.34;101235.28;6250900;23;20016;-93
2022/03/02 03:03:38;;;;;;;24.77;14.40;;;;;;;0.43;67.46;101230.94;6248857;23;20117;-92
2022/03/02 03:06:06;;;;;;;24.02;13.80;;;;;;;0.65;67.39;101260.59;6223419;23;20383;-92
2022/03/02 03:08:33;;;;;;;25.98;14.02;;;;;;;0.67;67.75;101253.66;6248796;23;20016;-92
2022/03/02 03:11:02;;;;;;;19.88;13.52;;;;;;;0.65;67.10;101258.00;6256127;23;20016;-93
2022/03/02 03:13:31;;;;;;;22.40;14.60;;;;;;;0.52;67.15;101220.56;6261932;23;20012;-93
2022/03/02 03:15:59;;;;;;;25.08;13.60;;;;;;;0.83;66.79;101265.06;6262697;23;20434;-95
2022/03/02 03:18:27;;;;;;;22.27;14.18;;;;;;;0.81;66.90;101259.84;6257608;23;20024;-92
2022/03/02 03:20:55;;;;;;;20.05;13.45;;;;;;;0.76;66.70;101245.94;6250353;23;20016;-92
2022/03/02 03:23:22;;;;;;;23.48;14.18;;;;;;;0.58;66.75;101211.91;6245982;23;20066;-92
2022/03/02 03:25:49;;;;;;;22.92;13.45;;;;;;;0.58;66.29;101214.53;6247415;23;20016;-92
2022/03/02 03:28:18;;;;;;;23.52;14.15;;;;;;;0.65;66.38;101227.59;6248588;23;20024;-94
2022/03/02 03:30:45;;;;;;;19.60;12.75;;;;;;;0.79;66.38;101239.88;6255990;23;20008;-96
2022/03/02 03:33:13;;;;;;;22.83;13.50;;;;;;;0.71;66.40;101213.75;6267537;22;20054;-96
2022/03/02 03:35:42;;;;;;;21.63;12.77;;;;;;;0.91;66.31;101235.59;6233002;23;20059;-92
2022/03/02 03:38:09;;;;;;;21.98;12.95;;;;;;;0.93;65.88;101235.59;6248567;23;20012;-93
2022/03/02 03:40:38;;;;;;;19.25;12.52;;;;;;;1.02;65.17;101239.13;6221749;23;20039;-91
2022/03/02 03:43:07;;;;;;;22.20;13.18;;;;;;;1.08;65.11;101242.63;6246869;23;20024;-94
2022/03/02 03:45:37;;;;;;;20.13;12.63;;;;;;;0.88;65.41;101199.06;6251703;23;20018;-92
2022/03/02 03:48:07;;;;;;;19.67;12.40;;;;;;;0.89;65.20;101203.41;6248258;23;20012;-91
2022/03/02 03:50:35;;;;;;;22.45;12.60;;;;;;;1.12;64.92;101228.72;6245893;23;20022;-91
2022/03/02 03:53:07;;;;;;;20.73;12.10;;;;;;;1.15;64.42;101226.13;6245789;23;20456;-92
2022/03/02 03:55:34;;;;;;;18.67;11.97;;;;;;;1.33;63.85;101252.31;6247019;23;20047;-93
2022/03/02 03:58:01;;;;;;;19.13;11.68;;;;;;;1.32;63.23;101253.19;6246686;23;20016;-91
2022/03/02 04:00:29;;;;;;;18.20;11.60;;;;;;;1.23;63.34;101232.28;6246851;23;20016;-91
2022/03/02 04:02:56;;;;;;;21.00;11.90;;;;;;;1.18;63.60;101234.84;6245154;23;20023;-90
2022/03/02 04:05:24;;;;;;;22.38;12.60;;;;;;;1.34;63.97;101261.88;6256215;23;20023;-93
2022/03/02 04:07:51;;;;;;;21.92;11.68;;;;;;;1.19;62.79;101231.38;6246882;23;20019;-91
2022/03/02 04:10:20;;;;;;;19.13;11.82;;;;;;;1.21;63.09;101229.66;6220435;23;20047;-92
2022/03/02 04:12:47;;;;;;;22.23;12.70;;;;;;;0.97;63.48;101203.44;6244627;23;20036;-92
2022/03/02 04:15:18;;;;;;;21.05;12.50;;;;;;;1.27;63.97;101266.19;6247286;23;20042;-91
2022/03/02 04:17:46;;;;;;;21.75;13.32;;;;;;;0.98;64.06;101200.84;6247432;23;20436;-92
2022/03/02 04:20:13;;;;;;;18.85;11.60;;;;;;;1.17;64.17;101229.63;6247298;23;20340;-93
2022/03/02 04:22:41;;;;;;;22.92;12.30;;;;;;;1.09;64.39;101219.19;6219932;23;20020;-92
2022/03/02 04:25:10;;;;;;;20.35;13.07;;;;;;;0.95;64.55;101190.41;6247026;23;20012;-92
2022/03/02 04:27:38;;;;;;;18.92;12.20;;;;;;;1.13;64.36;101217.44;6247301;23;20016;-92
2022/03/02 04:30:08;;;;;;;18.30;11.73;;;;;;;0.95;64.38;101179.97;6247804;23;20043;-91
2022/03/02 04:32:37;;;;;;;20.20;12.45;;;;;;;1.22;64.13;101226.19;6244566;23;20440;-92
2022/03/02 04:35:10;;;;;;;19.58;11.95;;;;;;;1.22;64.34;101214.88;6243895;23;20048;-92
2022/03/02 04:37:40;;;;;;;18.15;11.88;;;;;;;1.00;63.68;101180.00;6245073;23;20118;-93
2022/03/02 04:40:12;;;;;;;18.73;11.90;;;;;;;1.25;64.04;101218.38;6244384;23;20032;-92
2022/03/02 04:42:43;;;;;;;22.10;12.40;;;;;;;1.28;63.87;101220.97;6244573;23;20024;-91
2022/03/02 04:45:12;;;;;;;19.85;12.32;;;;;;;1.09;63.47;101193.09;6244021;23;20056;-92
2022/03/02 04:47:41;;;;;;;21.73;11.98;;;;;;;1.21;63.27;101215.75;6217048;23;20012;-92
2022/03/02 04:50:12;;;;;;;19.40;12.02;;;;;;;1.12;63.54;101185.25;6217273;23;20444;-92
2022/03/02 04:52:50;;;;;;;18.45;11.45;;;;;;;1.19;63.75;101201.81;6217352;23;20099;-92
2022/03/02 04:55:22;;;;;;;19.23;12.15;;;;;;;1.28;63.47;101207.94;6245131;23;20107;-92
2022/03/02 04:57:53;;;;;;;18.50;11.95;;;;;;;1.34;63.45;101204.47;6243459;23;20012;-91
2022/03/02 05:00:27;;;;;;;20.88;11.88;;;;;;;1.15;63.93;101177.44;6243924;23;20016;-91
2022/03/02 05:02:58;;;;;;;18.85;12.02;;;;;;;1.37;63.70;101215.81;6244191;23;20441;-91
2022/03/02 05:05:41;;;;;;;;;;;;;;;1.45;63.38;101234.09;6247296;23;20157;-91
2022/03/02 05:08:10;;;;;;;19.15;11.85;;;;;;;1.28;62.96;101201.84;6246134;23;19915;-95
2022/03/02 05:10:40;;;;;;;21.05;11.85;;;;;;;1.36;63.55;101208.84;6245101;23;20074;-92
2022/03/02 05:13:25;;;;;;;22.02;11.65;;;;;;;1.13;63.39;101166.13;6244739;23;20008;-93
2022/03/02 05:15:54;;;;;;;21.60;11.95;;;;;;;1.34;63.23;101205.34;6244648;23;20401;-91
2022/03/02 05:18:22;;;;;;;17.60;11.03;;;;;;;1.26;63.28;101169.69;6245843;23;20008;-90
2022/03/02 05:20:58;;;;;;;17.73;11.35;;;;;;;1.33;63.32;101182.72;6245931;23;20454;-91
2022/03/02 05:23:30;;;;;;;18.65;11.30;;;;;;;1.33;63.37;101182.72;6244665;23;20016;-93
2022/03/02 05:25:58;;;;;;;21.42;11.75;;;;;;;1.34;62.78;101181.00;6252551;23;20020;-91
2022/03/02 05:28:28;;;;;;;17.40;11.00;;;;;;;1.26;63.14;101167.06;6226630;23;20318;-91
2022/03/02 05:30:56;;;;;;;16.52;11.02;;;;;;;1.32;62.81;101183.59;6230374;23;20087;-91
2022/03/02 05:33:23;;;;;;;16.88;11.75;;;;;;;1.11;63.18;101157.44;6250330;23;20785;-92
2022/03/02 05:35:55;;;;;;;19.58;11.98;;;;;;;1.31;63.65;101194.91;6247454;23;20047;-91
2022/03/02 05:38:22;;;;;;;18.30;10.57;;;;;;;1.37;63.13;101194.06;6247653;23;20472;-92
2022/03/02 05:40:52;;;;;;;18.60;11.15;;;;;;;1.38;62.71;101204.50;6246981;23;20016;-94
2022/03/02 05:43:26;;;;;;;16.98;11.95;;;;;;;1.25;63.29;101181.84;6247871;23;20120;-92
2022/03/02 05:45:56;;;;;;;19.30;12.25;;;;;;;1.40;63.33;101202.78;6254631;23;20036;-92
2022/03/02 05:48:25;;;;;;;23.40;11.90;;;;;;;1.57;63.77;101234.16;6258967;23;20016;-91
2022/03/02 05:50:52;;;;;;;22.20;12.30;;;;;;;1.47;63.43;101221.91;6252868;23;20343;-92
2022/03/02 05:53:22;;;;;;;19.67;12.18;;;;;;;1.53;63.54;101227.16;6246956;23;20021;-91
2022/03/02 05:55:50;;;;;;;19.85;11.23;;;;;;;1.17;63.42;101175.72;6247957;23;20455;-93
2022/03/02 05:58:21;;;;;;;17.48;11.73;;;;;;;1.24;62.97;101184.44;6247600;23;20020;-91
2022/03/02 06:00:50;;;;;;;19.35;11.38;;;;;;;1.53;63.29;101237.63;6248732;23;20054;-91
2022/03/02 06:03:20;;;;;;;18.75;11.65;;;;;;;1.36;63.31;101202.75;6248582;23;20019;-90
2022/03/02 06:05:53;;;;;;;19.15;11.57;;;;;;;1.21;62.66;101169.66;6204965;23;20016;-92
2022/03/02 06:08:26;;;;;;;21.67;11.75;;;;;;;1.34;62.65;101194.91;6261282;23;20023;-94
2022/03/02 06:10:55;;;;;;;18.77;11.75;;;;;;;1.36;62.85;101192.31;6265950;23;20020;-93
2022/03/02 06:13:22;;;;;;;20.13;11.70;;;;;;;1.37;62.65;101197.53;6239807;23;20043;-95
2022/03/02 06:15:49;;;;;;;20.65;11.80;;;;;;;1.36;62.81;101194.94;6254270;23;20012;-93
2022/03/02 06:18:23;;;;;;;18.35;11.73;;;;;;;1.25;62.71;101166.19;6227111;23;20016;-92
2022/03/02 06:20:52;;;;;;;19.77;11.43;;;;;;;1.40;62.94;101194.06;6251904;23;20091;-90
2022/03/02 06:23:22;;;;;;;22.65;12.50;;;;;;;1.64;63.53;101225.44;6249052;23;20020;-93
2022/03/02 06:25:50;;;;;;;18.73;11.60;;;;;;;1.49;63.04;101209.75;6254109;23;20026;-92
2022/03/02 06:28:18;;;;;;;19.98;11.95;;;;;;;1.36;63.65;101185.34;6265187;23;20016;-94
2022/03/02 06:30:57;;;;;;;21.38;11.75;;;;;;;1.40;63.51;101174.06;6256644;23;20021;-93
2022/03/02 06:33:24;;;;;;;17.52;11.43;;;;;;;1.33;63.71;101161.84;6223417;23;20526;-92
2022/03/02 06:35:53;;;;;;;22.25;12.65;;;;;;;1.55;63.91;101188.03;6249492;23;20021;-93
2022/03/02 06:41:29;;;;;;;19.25;12.00;;;;;;;1.85;63.42;101224.63;6249079;23;20008;-93
2022/03/02 06:44:04;;;;;;;18.45;11.90;;;;;;;1.79;63.06;101208.94;6243395;23;20028;-93
2022/03/02 06:46:43;;;;;;;18.40;12.10;;;;;;;1.86;62.80;101213.31;6217766;23;20016;-93
2022/03/02 06:49:18;;;;;;;18.83;11.15;;;;;;;1.85;62.42;101201.13;6248115;23;20047;-91
2022/03/02 06:51:47;;;;;;;18.85;11.55;;;;;;;1.88;62.42;101195.03;6245440;23;20024;-93
2022/03/02 06:54:17;;;;;;;18.38;11.52;;;;;;;2.05;62.29;101220.28;6242641;23;20016;-92
2022/03/02 06:56:55;;;;;;;25.70;11.95;;;;;;;1.74;62.29;101169.75;6244624;23;20020;-93
2022/03/02 06:59:41;;;;;;;20.50;11.98;;;;;;;1.79;62.47;101174.13;6244948;23;20024;-90
2022/03/02 07:02:12;;;;;;;19.65;11.52;;;;;;;2.00;63.03;101208.13;6241941;23;20345;-91
2022/03/02 07:04:43;;;;;;;21.00;12.20;;;;;;;1.99;62.85;101201.16;6239454;23;20016;-91
2022/03/02 07:07:11;;;;;;;20.63;12.30;;;;;;;1.87;62.55;101169.78;6215720;23;20016;-90
2022/03/02 07:09:47;;;;;;;21.80;11.75;;;;;;;2.21;62.18;101212.44;6242373;23;20024;-91
2022/03/02 07:12:24;;;;;;;20.52;11.48;;;;;;;2.20;61.73;101214.22;6244263;23;20108;-91
2022/03/02 07:14:54;;;;;;;17.77;11.00;;;;;;;2.01;61.13;101163.72;6246347;23;20020;-90
2022/03/02 07:17:33;;;;;;;20.65;11.27;;;;;;;2.25;61.18;101203.75;6245994;23;20024;-90
2022/03/02 07:20:10;;;;;;;20.42;11.52;;;;;;;2.36;60.82;101205.47;6244494;23;20432;-90
2022/03/02 07:22:43;;;;;;;24.40;11.80;;;;;;;2.35;60.28;101192.44;6217406;23;20055;-93
2022/03/02 07:25:22;;;;;;;18.27;11.50;;;;;;;2.46;60.43;101209.84;6252845;23;20016;-93
2022/03/02 07:27:50;;;;;;;18.83;11.43;;;;;;;2.34;61.61;101168.06;6265251;23;20023;-91
2022/03/02 07:30:20;;;;;;;22.42;11.80;;;;;;;2.40;62.81;101159.31;6265592;22;20070;-91
2022/03/02 07:32:52;;;;;;;19.50;11.32;;;;;;;2.75;59.90;101212.41;6225696;23;20027;-90
2022/03/02 07:35:19;;;;;;;18.52;11.38;;;;;;;2.91;58.35;101228.94;6249921;23;20027;-91
2022/03/02 07:37:46;;;;;;;20.83;11.25;;;;;;;2.97;58.38;101215.88;6247212;23;20020;-91
2022/03/02 07:40:17;;;;;;;20.57;11.07;;;;;;;3.05;57.55;101221.94;6247183;23;20031;-92
2022/03/02 07:42:45;;;;;;;20.42;12.38;;;;;;;3.07;57.44;101214.06;6246323;23;20031;-91
2022/03/02 07:45:16;;;;;;;19.45;10.80;;;;;;;3.08;57.30;101197.50;6243602;23;20024;-91
2022/03/02 07:47:44;;;;;;;19.35;11.93;;;;;;;3.12;56.69;101187.03;6243399;23;20036;-92
2022/03/02 07:50:13;;;;;;;17.52;11.23;;;;;;;3.30;55.61;101196.56;6246094;23;20023;-91
2022/03/02 07:52:47;;;;;;;18.23;11.07;;;;;;;3.25;54.46;101172.13;6246990;23;20020;-93
2022/03/02 07:55:20;;;;;;;18.67;11.00;;;;;;;3.54;54.38;101213.88;6246097;23;20074;-92
2022/03/02 07:57:55;;;;;;;17.77;11.18;;;;;;;3.79;53.35;101225.94;6247502;23;20381;-92
2022/03/02 08:00:25;;;;;;;16.92;10.45;;;;;;;3.63;53.49;101190.25;6246291;23;20431;-92
2022/03/02 08:02:56;;;;;;;16.77;11.10;;;;;;;3.72;54.56;101187.59;6244394;23;20015;-93
2022/03/02 08:05:25;;;;;;;18.55;10.95;;;;;;;4.08;53.42;101219.66;6246586;23;20012;-91
2022/03/02 08:07:55;;;;;;;16.95;10.93;;;;;;;3.92;52.09;101191.81;6247360;23;20043;-92
2022/03/02 08:10:22;;;;;;;18.95;10.73;;;;;;;4.08;52.10;101199.56;6247736;23;20016;-93
2022/03/02 08:12:49;;;;;;;15.27;10.30;;;;;;;4.00;51.85;101169.91;6244267;23;20024;-91
2022/03/02 08:15:16;;;;;;;13.90;9.82;;;;;;;4.04;51.84;101160.28;6244396;23;20016;-92
2022/03/02 08:17:50;;;;;;;16.90;10.27;;;;;;;4.17;51.59;101183.75;6247236;23;20080;-93
2022/03/02 08:20:50;;;;;;;16.90;9.70;;;;;;;4.25;50.27;101201.19;6251007;23;20020;-91
2022/03/02 08:24:09;;;;;;;14.73;10.00;;;;;;;4.25;50.73;101186.28;6247313;23;20020;-92
2022/03/02 08:27:10;;;;;;;15.10;9.23;;;;;;;4.49;52.42;101214.94;6120657;23;20017;-94
2022/03/02 08:29:38;;;;;;;;;;;;;;;4.58;51.94;101217.47;6252929;23;20016;-92
2022/03/02 08:32:07;;;;;;;14.90;9.82;;;;;;;4.63;51.63;101220.03;6222592;23;19990;-93
2022/03/02 08:35:06;;;;;;;16.23;9.93;;;;;;;4.75;50.92;101214.66;6250542;23;20112;-93
2022/03/02 08:38:13;;;;;;;15.35;10.27;;;;;;;4.89;49.87;101225.03;6247772;23;20031;-92
2022/03/02 08:40:43;;;;;;;17.10;9.75;;;;;;;4.66;49.29;101161.44;6222848;23;20024;-93
2022/03/02 08:43:23;;;;;;;16.55;9.98;;;;;;;4.79;49.29;101181.41;6185732;23;20032;-92
2022/03/02 08:45:53;;;;;;;15.02;9.63;;;;;;;4.75;48.58;101163.94;6186820;23;20009;-92
2022/03/02 08:48:23;;;;;;;14.43;9.82;;;;;;;5.11;49.04;101207.28;6196126;23;20009;-93
2022/03/02 08:50:51;;;;;;;16.48;9.95;;;;;;;5.06;47.40;101196.84;6189236;23;20040;-93
2022/03/02 08:53:19;;;;;;;14.32;9.23;;;;;;;4.97;47.90;101182.97;6187355;23;20021;-92
2022/03/02 08:55:49;;;;;;;15.00;9.57;;;;;;;4.90;47.22;101183.00;6192788;23;20025;-92
2022/03/02 08:58:19;;;;;;;13.23;9.20;;;;;;;4.86;47.52;101197.09;6194847;23;20020;-92
2022/03/02 09:01:00;;;;;;;15.05;9.43;;;;;;;4.65;47.83;101157.94;6201702;23;20017;-91
2022/03/02 09:03:48;;;;;;;15.82;9.63;;;;;;;4.80;47.21;101193.66;6192428;23;20048;-92
2022/03/02 09:06:42;;;;;;;16.45;9.13;;;;;;;4.83;47.11;101191.00;6195018;23;20017;-93
2022/03/02 09:09:24;;;;;;;15.23;9.30;;;;;;;4.86;46.74;101198.84;6176184;23;20016;-92
2022/03/02 09:11:52;;;;;;;15.30;9.07;;;;;;;4.87;47.80;101198.81;6198619;23;20073;-93
2022/03/02 09:14:19;;;;;;;16.10;9.52;;;;;;;4.95;46.60;101211.84;6224947;23;20035;-92
2022/03/02 09:16:46;;;;;;;15.07;9.85;;;;;;;5.05;47.01;101223.09;6261895;23;20055;-94
2022/03/02 09:19:16;;;;;;;12.82;9.48;;;;;;;5.06;47.31;101222.22;6249493;23;20020;-92
2022/03/02 09:21:44;;;;;;;12.38;8.93;;;;;;;5.07;46.97;101216.09;6256684;23;20024;-94
2022/03/02 09:24:22;;;;;;;18.20;10.68;;;;;;;4.93;45.93;101171.63;6264793;23;20071;-94
2022/03/02 09:26:53;;;;;;;15.60;9.75;;;;;;;5.05;46.73;101162.72;6223049;23;20022;-93
2022/03/02 09:29:31;;;;;;;12.52;9.05;;;;;;;5.31;45.48;101175.53;6224270;23;20020;-92
2022/03/02 09:32:41;;;;;;;14.63;9.43;;;;;;;5.05;45.86;101153.09;6247519;23;20016;-92
2022/03/02 09:35:48;;;;;;;;;;;;;;;;;;;;;
2022/03/02 09:39:03;;;;;;;15.50;9.23;;;;;;;5.05;46.10;101139.97;6219801;23;20456;-92
2022/03/02 09:41:49;;;;;;;15.32;9.73;;;;;;;5.10;44.88;101140.78;6250640;23;20020;-91
2022/03/02 09:44:54;;;;;;;15.25;9.10;;;;;;;5.41;46.22;101174.53;6255657;22;20016;-92
2022/03/02 09:47:53;;;;;;;13.52;9.15;;;;;;;5.61;45.52;101189.13;6223677;23;20112;-92
2022/03/02 09:50:22;;;;;;;15.18;9.70;;;;;;;5.57;44.76;101149.78;6246982;23;20087;-92
2022/03/02 09:53:14;;;;;;;14.20;9.50;;;;;;;5.91;45.28;101161.56;6248882;23;20099;-91
2022/03/02 09:55:44;;;;;;;13.90;8.90;;;;;;;6.28;44.48;101189.91;6253817;23;20023;-93
2022/03/02 09:58:15;;;;;;;13.70;9.25;;;;;;;6.41;43.90;101187.91;6236443;23;20448;-91
2022/03/02 10:00:55;;;;;;;15.55;9.38;;;;;;;6.41;43.02;101165.13;6253816;23;20102;-92
2022/03/02 10:03:47;;;;;;;15.90;9.02;;;;;;;6.52;42.56;101163.16;6250719;23;20112;-93
2022/03/02 10:06:25;;;;;;;14.43;9.60;;;;;;;6.78;42.23;101178.44;6252025;23;20085;-92
2022/03/02 10:09:17;;;;;;;12.48;9.15;;;;;;;6.83;42.21;101196.78;6250433;23;20027;-90
2022/03/02 10:12:07;;;;;;;14.10;9.68;;;;;;;6.65;41.98;101164.66;6247840;23;20017;-91
2022/03/02 10:14:52;;;;;;;14.40;9.52;;;;;;;6.88;41.90;101206.34;6226231;23;20016;-93
2022/03/02 10:17:38;;;;;;;13.30;9.30;;;;;;;6.59;42.44;101134.97;6248224;23;20024;-91
2022/03/02 10:20:19;;;;;;;13.23;9.70;;;;;;;6.64;42.40;101154.16;6250360;23;20036;-91
2022/03/02 10:23:32;;;;;;;13.50;9.77;;;;;;;6.65;42.74;101185.72;6248549;23;20271;-92
2022/03/02 10:26:07;;;;;;;13.88;9.63;;;;;;;6.38;42.78;101166.91;6248363;23;20417;-91
2022/03/02 10:29:06;;;;;;;14.32;9.20;;;;;;;6.34;43.26;101158.22;6249650;23;20024;-92
2022/03/02 10:31:49;;;;;;;17.92;9.18;;;;;;;6.55;42.43;101196.44;6248039;23;20373;-92
2022/03/02 10:34:16;;;;;;;13.75;9.45;;;;;;;6.46;42.80;101194.81;6247340;23;20016;-92
2022/03/02 10:37:35;;;;;;;13.55;9.43;;;;;;;6.47;43.30;101170.25;6222726;23;20039;-92
2022/03/02 10:40:18;;;;;;;13.35;9.20;;;;;;;6.72;43.26;101182.97;6248378;23;20020;-92
2022/03/02 10:43:03;;;;;;;14.38;9.77;;;;;;;6.56;42.24;101122.75;6253971;23;20036;-90
2022/03/02 10:45:44;;;;;;;12.93;9.27;;;;;;;6.78;42.54;101146.00;6213145;23;20515;-93
2022/03/02 10:49:17;;;;;;;14.18;9.45;;;;;;;7.26;41.62;101171.34;6231409;23;20024;-92
2022/03/02 10:52:05;;;;;;;12.70;9.20;;;;;;;7.06;41.40;101120.88;6252724;23;20031;-92
2022/03/02 10:54:39;;;;;;;15.93;8.75;;;;;;;7.39;39.99;101154.41;6257734;23;20027;-92
2022/03/02 10:57:12;;;;;;;13.55;8.32;;;;;;;7.30;39.57;101136.13;6227282;23;20028;-92
2022/03/02 10:59:43;;;;;;;12.90;8.15;;;;;;;7.37;40.16;101110.53;6246540;23;20016;-92
2022/03/02 11:02:11;;;;;;;14.98;8.93;;;;;;;7.80;39.30;101109.53;6243475;23;20384;-95
2022/03/02 11:04:43;;;;;;;11.88;8.38;;;;;;;8.13;38.13;101103.41;6243550;23;20027;-93
2022/03/02 11:07:12;;;;;;;18.20;9.02;;;;;;;8.59;37.31;101125.97;6244973;23;20042;-93
2022/03/02 11:09:55;;;;;;;12.63;9.23;;;;;;;8.36;37.80;101114.25;6242733;23;20579;-93
2022/03/02 11:12:33;;;;;;;12.48;9.10;;;;;;;8.89;36.48;101122.47;6241629;23;20023;-95
2022/03/02 11:15:58;;;;;;;13.15;9.43;;;;;;;10.78;34.01;101119.88;6241357;23;20356;-92
2022/03/02 11:18:52;;;;;;;13.02;8.30;;;;;;;13.06;29.60;101146.84;6245206;23;20074;-93
2022/03/02 11:21:49;;;;;;;13.07;8.88;;;;;;;13.76;28.16;101097.47;6243689;23;20021;-91
2022/03/02 11:24:17;;;;;;;11.68;8.20;;;;;;;14.78;27.09;101106.44;6219479;23;20012;-92
2022/03/02 11:26:59;;;;;;;9.95;7.50;;;;;;;15.42;24.59;101089.59;6221892;23;20055;-92
2022/03/02 11:29:51;;;;;;;12.68;8.88;;;;;;;15.54;25.08;101126.28;6226872;23;20028;-94
2022/03/02 11:32:19;;;;;;;10.98;8.18;;;;;;;15.18;25.30;101120.28;6226011;23;20020;-91
2022/03/02 11:34:48;;;;;;;9.73;7.75;;;;;;;14.63;25.64;101077.94;6246556;23;20050;-92
2022/03/02 11:37:17;;;;;;;10.30;8.02;;;;;;;14.60;25.65;101104.75;6246257;23;20031;-90
2022/03/02 11:39:59;;;;;;;11.25;8.20;;;;;;;14.11;26.85;101077.94;6218232;23;20016;-92
2022/03/02 11:42:40;;;;;;;11.77;8.43;;;;;;;13.54;27.45;101063.91;6243461;23;20412;-91
2022/03/02 11:45:36;;;;;;;11.45;8.27;;;;;;;13.40;27.62;101103.59;6241882;23;20090;-91
2022/03/02 11:48:17;;;;;;;11.48;8.82;;;;;;;13.04;28.40;101100.00;6246010;23;20020;-90
2022/03/02 11:51:14;;;;;;;11.25;8.38;;;;;;;11.67;29.08;101039.53;6248992;23;20104;-91
2022/03/02 11:54:14;;;;;;;12.75;8.77;;;;;;;11.01;30.14;101028.94;6263965;22;20035;-92
2022/03/02 11:57:01;;;;;;;10.23;7.68;;;;;;;10.70;29.62;101029.25;6259175;22;20078;-95
2022/03/02 12:04:08;;;;;;;10.38;8.20;;;;;;;10.38;31.16;101090.44;6248396;23;20050;-91
2022/03/02 12:06:47;;;;;;;12.10;8.82;;;;;;;10.00;31.32;101060.84;6242925;23;20034;-91
2022/03/02 12:10:17;;;;;;;12.05;8.50;;;;;;;9.95;31.72;101059.25;6224669;23;20094;-92
2022/03/02 12:13:26;;;;;;;10.98;7.90;;;;;;;10.28;32.00;101074.00;6221474;23;20016;-92
2022/03/02 12:16:08;;;;;;;14.48;8.73;;;;;;;10.07;30.91;101027.09;6252355;23;20027;-93
2022/03/02 12:18:38;;;;;;;11.32;8.10;;;;;;;10.06;31.66;101047.41;6253912;23;20102;-95